Time;durP1;ratioP1;P1;durP2;ratioP2;P2;SDS_P1;SDS_P2;PMS_P1;PMS_P2;Temp;Humidity;BMP_temperature;BMP_pressure;BME280_temperature;BME280_humidity;BME280_pressure;Samples;Min_cycle;Max_cycle;Signal;HPM_P1;HPM_P2
2023/09/16 00:02:28;;;;;;;7.93;4.75;;;15.70;99.90;;;16.23;70.92;100434.66;4919519;29;20044;-81
2023/09/16 00:04:55;;;;;;;6.80;4.53;;;15.70;99.90;;;16.23;71.29;100429.28;4920533;29;20040;-82
2023/09/16 00:07:23;;;;;;;11.15;4.65;;;15.70;99.90;;;16.24;71.49;100428.22;4920073;29;20099;-82
2023/09/16 00:09:56;;;;;;;8.15;4.93;;;15.70;99.90;;;16.25;71.56;100427.19;4920301;29;20052;-82
2023/09/16 00:12:25;;;;;;;7.82;4.30;;;15.70;99.90;;;16.21;71.84;100424.16;4888851;29;20040;-82
2023/09/16 00:14:53;;;;;;;7.75;4.85;;;15.70;99.90;;;16.21;71.64;100431.44;4903048;29;20104;-82
2023/09/16 00:17:21;;;;;;;6.70;4.38;;;15.70;99.90;;;16.22;71.72;100430.34;4920233;29;20040;-82
2023/09/16 00:19:50;;;;;;;6.63;4.50;;;15.70;99.90;;;16.23;71.78;100434.66;4919789;29;20086;-82
2023/09/16 00:22:21;;;;;;;9.60;4.35;;;15.70;99.90;;;16.25;71.86;100437.94;4919019;29;20050;-82
2023/09/16 00:24:49;;;;;;;7.15;4.82;;;15.70;99.90;;;16.26;72.19;100436.06;4904096;29;20219;-81
2023/09/16 00:27:18;;;;;;;8.18;4.57;;;15.70;99.90;;;16.25;72.49;100426.34;4887619;29;20044;-81
2023/09/16 00:29:47;;;;;;;8.77;4.75;;;15.80;99.90;;;16.27;72.68;100426.94;4918687;29;20056;-81
2023/09/16 00:32:14;;;;;;;8.32;4.75;;;15.80;99.90;;;16.29;72.86;100422.09;4918557;29;20091;-81
2023/09/16 00:34:42;;;;;;;7.63;4.97;;;15.80;99.90;;;16.32;72.75;100422.41;4903198;29;20055;-81
2023/09/16 00:37:09;;;;;;;6.30;4.18;;;15.80;99.90;;;16.34;72.68;100419.47;4920212;29;20082;-82
2023/09/16 00:39:38;;;;;;;7.68;4.68;;;15.90;99.90;;;16.37;72.89;100417.09;4920304;29;20104;-82
2023/09/16 00:42:06;;;;;;;10.02;4.80;;;15.90;99.90;;;16.39;72.76;100423.03;4903395;29;20048;-82
2023/09/16 00:44:35;;;;;;;7.53;4.50;;;15.90;99.90;;;16.39;73.02;100409.56;4919657;29;20048;-82
2023/09/16 00:47:03;;;;;;;8.25;4.95;;;15.90;99.90;;;16.41;73.09;100410.16;4903028;29;20095;-82
2023/09/16 00:49:32;;;;;;;8.77;4.70;;;15.90;99.90;;;16.41;73.07;100407.47;4903553;29;20100;-82
2023/09/16 00:52:00;;;;;;;7.40;5.22;;;16.00;99.90;;;16.45;73.09;100410.47;4903313;29;20080;-81
2023/09/16 00:54:28;;;;;;;8.80;5.07;;;16.00;99.90;;;16.47;73.06;100403.75;4920242;29;20040;-82
2023/09/16 00:56:57;;;;;;;10.85;5.13;;;16.00;99.90;;;16.47;73.29;100401.06;4887086;29;20120;-81
2023/09/16 00:59:28;;;;;;;8.07;4.57;;;16.00;99.90;;;16.45;73.42;100397.81;4919898;29;20055;-82
2023/09/16 01:01:57;;;;;;;5.97;4.20;;;16.00;99.90;;;16.45;73.40;100400.50;4919708;29;20055;-82
2023/09/16 01:04:25;;;;;;;8.65;4.55;;;16.00;99.90;;;16.46;73.27;100398.63;4918558;29;20142;-82
2023/09/16 01:06:52;;;;;;;8.60;4.85;;;16.00;99.90;;;16.45;73.17;100402.38;4902608;29;20044;-82
2023/09/16 01:09:22;;;;;;;8.52;4.80;;;16.00;99.90;;;16.45;73.28;100400.50;4918237;29;20052;-81
2023/09/16 01:11:50;;;;;;;8.02;4.78;;;16.00;99.90;;;16.43;73.54;100399.94;4902777;29;20119;-82
2023/09/16 01:14:17;;;;;;;8.13;4.65;;;15.90;99.90;;;16.42;73.68;100397.50;4922410;29;20048;-82
2023/09/16 01:16:49;;;;;;;6.63;4.60;;;16.00;99.90;;;16.41;73.58;100403.94;4922316;29;20048;-82
2023/09/16 01:19:37;;;;;;;8.05;4.63;;;15.90;99.90;;;16.37;73.88;100402.81;4906468;29;20080;-82
2023/09/16 01:22:06;;;;;;;6.93;4.40;;;15.90;99.90;;;16.37;73.92;100403.63;4908523;29;20083;-82
2023/09/16 01:24:35;;;;;;;12.50;4.82;;;15.90;99.90;;;16.37;73.77;100408.22;4906491;29;20044;-81
2023/09/16 01:27:05;;;;;;;9.48;4.43;;;15.90;99.90;;;16.38;73.98;100401.75;4922294;29;20048;-81
2023/09/16 01:29:33;;;;;;;;;;;15.90;99.90;;;16.38;74.16;100396.38;4923788;29;20044;-82
2023/09/16 01:32:06;;;;;;;9.32;4.97;;;15.90;99.90;;;16.36;74.33;100402.00;4907107;29;19961;-82
2023/09/16 01:34:41;;;;;;;10.55;4.70;;;15.90;99.90;;;16.38;74.19;100399.88;4906283;29;20509;-82
2023/09/16 01:37:19;;;;;;;8.52;4.60;;;16.00;99.90;;;16.41;74.33;100403.94;4923914;29;20040;-82
2023/09/16 01:39:50;;;;;;;8.70;4.75;;;16.00;99.90;;;16.43;74.44;100401.81;4921726;29;20052;-82
2023/09/16 01:42:21;;;;;;;6.35;4.20;;;16.00;99.90;;;16.43;74.69;100399.94;4923201;29;20044;-82
2023/09/16 01:44:49;;;;;;;7.57;4.50;;;16.00;99.90;;;16.45;74.91;100399.69;4890785;29;20040;-82
2023/09/16 01:47:16;;;;;;;10.35;4.95;;;16.00;99.90;;;16.45;75.20;100397.81;4921337;29;20048;-81
2023/09/16 01:49:44;;;;;;;8.07;5.03;;;16.00;99.90;;;16.49;75.11;100403.50;4905555;29;20051;-82
2023/09/16 01:52:12;;;;;;;7.47;4.80;;;16.00;99.90;;;16.50;75.51;100396.25;4906204;29;20048;-82
2023/09/16 01:54:41;;;;;;;7.53;5.10;;;16.00;99.90;;;16.51;75.52;100387.09;4906073;29;20112;-81
2023/09/16 01:57:09;;;;;;;7.38;4.93;;;16.00;99.90;;;16.53;75.64;100395.72;4922569;29;20450;-81
2023/09/16 01:59:38;;;;;;;7.18;5.30;;;16.10;99.90;;;16.53;76.02;100388.47;4905309;29;20135;-82
2023/09/16 02:02:06;;;;;;;7.90;5.22;;;16.10;99.90;;;16.55;76.26;100385.53;4874334;29;20418;-82
2023/09/16 02:04:33;;;;;;;8.13;4.80;;;16.10;99.90;;;16.55;76.64;100385.53;4921019;29;20095;-82
2023/09/16 02:07:03;;;;;;;7.70;4.57;;;16.10;99.90;;;16.55;76.61;100380.97;4905589;29;20055;-82
2023/09/16 02:09:31;;;;;;;8.75;4.82;;;16.10;99.90;;;16.55;76.51;100377.47;4905122;29;20585;-82
2023/09/16 02:11:59;;;;;;;9.43;5.03;;;16.10;99.90;;;16.56;76.67;100379.09;4921062;29;20050;-82
2023/09/16 02:14:27;;;;;;;8.05;4.78;;;16.10;99.90;;;16.56;76.58;100385.28;4921847;29;20127;-82
2023/09/16 02:16:55;;;;;;;9.70;4.60;;;16.10;99.90;;;16.56;76.58;100373.69;4905326;29;20056;-81
2023/09/16 02:19:23;;;;;;;8.00;4.43;;;16.10;99.90;;;16.55;76.92;100377.47;4874053;29;20529;-81
2023/09/16 02:21:51;;;;;;;9.25;4.60;;;16.10;99.90;;;16.54;76.86;100365.84;4905113;29;20044;-81
2023/09/16 02:24:18;;;;;;;10.90;4.38;;;16.10;99.90;;;16.55;76.62;100375.56;4921924;29;20096;-81
2023/09/16 02:26:48;;;;;;;7.80;4.82;;;16.10;99.90;;;16.54;76.61;100365.84;4904000;29;20067;-81
2023/09/16 02:29:16;;;;;;;9.43;4.80;;;16.10;99.90;;;16.55;76.49;100366.69;4905441;29;20048;-81
2023/09/16 02:31:44;;;;;;;6.88;4.40;;;16.10;99.90;;;16.55;76.37;100366.69;4921602;29;20095;-81
2023/09/16 02:34:13;;;;;;;15.00;4.35;;;16.10;99.90;;;16.54;76.21;100365.03;4905465;29;20139;-81
2023/09/16 02:36:40;;;;;;;7.50;4.30;;;16.10;99.90;;;16.52;76.07;100364.50;4920460;29;20084;-81
2023/09/16 02:39:08;;;;;;;7.65;4.32;;;16.10;99.90;;;16.52;75.92;100377.97;4904251;29;20043;-82
2023/09/16 02:41:36;;;;;;;8.02;4.40;;;16.00;99.90;;;16.50;75.63;100366.63;4889087;29;20055;-81
2023/09/16 02:44:04;;;;;;;11.90;4.85;;;16.00;99.90;;;16.47;75.43;100366.06;4920821;29;20127;-81
2023/09/16 02:46:31;;;;;;;9.52;5.15;;;16.00;99.90;;;16.47;75.30;100366.06;4904649;29;20036;-81
2023/09/16 02:48:59;;;;;;;10.00;5.20;;;16.00;99.90;;;16.46;75.17;100369.81;4921206;29;20048;-81
2023/09/16 02:51:28;;;;;;;8.95;4.65;;;16.00;99.90;;;16.45;75.15;100362.81;4904173;29;20044;-82
2023/09/16 02:53:58;;;;;;;7.20;4.45;;;16.00;99.90;;;16.45;75.12;100362.81;4920053;29;20050;-82
2023/09/16 02:56:27;;;;;;;11.32;5.10;;;16.00;99.90;;;16.42;75.09;100366.00;4904347;29;20058;-82
2023/09/16 02:58:55;;;;;;;7.43;4.32;;;16.00;99.90;;;16.40;75.24;100370.84;4888802;29;20049;-81
2023/09/16 03:01:23;;;;;;;8.20;4.93;;;15.90;99.90;;;16.40;75.17;100370.84;4903924;29;20457;-81
2023/09/16 03:03:51;;;;;;;8.43;4.55;;;16.00;99.90;;;16.40;75.24;100365.47;4904323;29;20061;-82
2023/09/16 03:06:18;;;;;;;9.38;4.90;;;16.00;99.90;;;16.40;75.29;100361.97;4888933;29;20044;-81
2023/09/16 03:08:48;;;;;;;9.43;4.82;;;15.90;99.90;;;16.38;75.53;100353.31;4904532;29;20476;-81
2023/09/16 03:11:16;;;;;;;8.52;4.90;;;15.90;99.90;;;16.39;75.61;100363.81;4904581;29;20059;-81
2023/09/16 03:13:44;;;;;;;6.40;4.55;;;16.00;99.90;;;16.39;75.75;100355.72;4888893;29;20044;-81
2023/09/16 03:16:17;;;;;;;8.23;4.95;;;16.00;99.90;;;16.39;75.98;100361.13;4888733;29;20463;-81
2023/09/16 03:18:49;;;;;;;8.05;5.15;;;16.00;99.90;;;16.40;76.27;100359.25;4888935;29;20044;-81
2023/09/16 03:21:18;;;;;;;9.27;5.03;;;16.00;99.90;;;16.40;76.13;100360.06;4919485;29;20045;-81
2023/09/16 03:23:49;;;;;;;10.40;4.90;;;15.90;99.90;;;16.41;76.33;100355.50;4919190;29;20040;-81
2023/09/16 03:26:17;;;;;;;8.20;4.80;;;16.00;99.90;;;16.41;76.60;100356.31;4888883;29;20059;-81
2023/09/16 03:28:48;;;;;;;6.90;4.85;;;16.00;99.90;;;16.42;76.41;100352.53;4903774;29;20134;-81
2023/09/16 03:31:17;;;;;;;8.82;5.00;;;16.00;99.90;;;16.43;76.54;100348.78;4888340;29;20115;-81
2023/09/16 03:33:45;;;;;;;7.10;4.40;;;16.00;99.90;;;16.44;76.25;100353.09;4919608;29;20068;-81
2023/09/16 03:36:12;;;;;;;6.57;4.55;;;16.00;99.90;;;16.43;76.56;100345.28;4902722;29;20046;-81
2023/09/16 03:38:49;;;;;;;7.82;4.90;;;16.00;99.90;;;16.42;76.18;100349.03;4919302;29;20055;-81
2023/09/16 03:41:18;;;;;;;8.20;4.63;;;16.00;99.90;;;16.41;76.00;100350.94;4920440;29;20107;-81
2023/09/16 03:43:52;;;;;;;7.80;5.20;;;16.00;99.90;;;16.38;75.98;100343.34;4889152;29;20052;-82
2023/09/16 03:46:23;;;;;;;8.82;4.63;;;16.00;99.90;;;16.39;75.75;100346.84;4903969;29;20048;-82
2023/09/16 03:48:52;;;;;;;8.55;5.22;;;15.90;99.90;;;16.38;75.53;100348.72;4920778;29;20543;-82
2023/09/16 03:51:20;;;;;;;7.22;4.38;;;15.90;99.90;;;16.32;75.42;100344.38;4903708;29;20040;-82
2023/09/16 03:53:49;;;;;;;7.18;4.68;;;15.90;99.90;;;16.31;75.50;100340.03;4903588;29;20048;-82
2023/09/16 03:56:16;;;;;;;11.50;4.60;;;15.90;99.90;;;16.31;75.40;100336.56;4903986;29;20048;-82
2023/09/16 03:58:44;;;;;;;10.02;4.85;;;15.90;99.90;;;16.29;75.18;100344.84;4872178;29;20091;-82
2023/09/16 04:01:11;;;;;;;6.57;4.80;;;15.80;99.90;;;16.28;75.04;100345.13;4903594;29;20099;-81
2023/09/16 04:03:39;;;;;;;8.00;4.93;;;15.80;99.90;;;16.26;74.92;100331.09;4903271;29;20044;-81
2023/09/16 04:06:09;;;;;;;7.72;4.50;;;15.70;99.90;;;16.23;74.90;100329.72;4920779;29;20043;-81
2023/09/16 04:08:38;;;;;;;7.72;5.10;;;15.80;99.90;;;16.21;74.76;100329.16;4887451;29;20048;-82
2023/09/16 04:11:07;;;;;;;8.10;4.47;;;15.80;99.90;;;16.20;74.50;100331.06;4919238;29;20505;-81
2023/09/16 04:13:35;;;;;;;8.93;4.75;;;15.70;99.90;;;16.19;74.53;100333.97;4903706;29;20421;-82
2023/09/16 04:16:03;;;;;;;8.23;4.95;;;15.70;99.90;;;16.18;74.45;100335.03;4920174;29;20521;-82
2023/09/16 04:18:31;;;;;;;7.43;4.70;;;15.70;99.90;;;16.17;74.27;100331.53;4871500;29;20073;-81
2023/09/16 04:20:58;;;;;;;9.43;4.18;;;15.70;99.90;;;16.14;74.30;100334.72;4903422;29;20390;-82
2023/09/16 04:23:27;;;;;;;7.22;4.53;;;15.70;99.90;;;16.15;74.15;100332.84;4903141;29;20080;-82
2023/09/16 04:26:02;;;;;;;9.90;4.55;;;15.60;99.90;;;16.12;74.53;100330.69;4902659;29;20130;-82
2023/09/16 04:28:31;;;;;;;8.40;4.30;;;15.60;99.90;;;16.11;74.11;100337.13;4887858;29;20043;-82
2023/09/16 04:31:00;;;;;;;7.22;4.78;;;15.60;99.90;;;16.09;74.23;100341.94;4919199;29;20072;-82
2023/09/16 04:33:32;;;;;;;8.45;5.13;;;15.60;99.90;;;16.07;74.15;100336.81;4903912;29;20509;-81
2023/09/16 04:36:00;;;;;;;8.02;5.10;;;15.60;99.90;;;16.07;74.21;100333.31;4887403;29;20139;-82
2023/09/16 04:38:28;;;;;;;10.75;5.25;;;15.60;99.90;;;16.06;74.25;100326.31;4888548;29;20135;-82
2023/09/16 04:40:58;;;;;;;8.95;5.13;;;15.60;99.90;;;16.03;74.24;100322.22;4904717;29;20080;-82
2023/09/16 04:43:26;;;;;;;10.98;5.18;;;15.60;99.90;;;16.01;74.18;100332.44;4889314;29;20072;-82
2023/09/16 04:45:55;;;;;;;10.95;5.60;;;15.60;99.90;;;16.00;74.21;100330.78;4889561;29;20048;-82
2023/09/16 04:48:35;;;;;;;9.32;5.72;;;15.60;99.90;;;16.00;74.25;100328.09;4893832;29;20079;-82
2023/09/16 04:51:04;;;;;;;8.40;5.75;;;15.50;99.90;;;15.99;74.00;100331.03;4908321;29;20058;-82
2023/09/16 04:53:33;;;;;;;8.27;5.70;;;15.50;99.90;;;15.99;74.01;100336.44;4923527;29;20054;-82
2023/09/16 04:56:05;;;;;;;9.93;6.28;;;15.50;99.90;;;16.00;74.06;100329.97;4892626;29;20063;-82
2023/09/16 04:58:34;;;;;;;12.18;6.82;;;15.50;99.90;;;15.98;74.22;100335.63;4908172;29;20048;-82
2023/09/16 05:01:04;;;;;;;9.85;7.10;;;15.50;99.90;;;15.97;74.04;100334.00;4908364;29;20048;-82
2023/09/16 05:03:32;;;;;;;9.93;6.95;;;15.50;99.90;;;15.95;73.82;100328.84;4923909;29;20107;-82
2023/09/16 05:05:59;;;;;;;10.65;6.95;;;15.50;99.90;;;15.93;73.96;100333.69;4908143;29;20088;-82
2023/09/16 05:08:33;;;;;;;10.57;7.25;;;15.50;99.90;;;15.92;73.80;100328.56;4894478;29;20044;-81
2023/09/16 05:11:01;;;;;;;;;;;15.40;99.90;;;15.93;73.79;100333.69;4910240;29;20055;-81
2023/09/16 05:13:35;;;;;;;13.20;7.93;;;15.40;99.90;;;15.92;73.89;100333.94;4894324;29;19927;-81
2023/09/16 05:16:04;;;;;;;14.32;8.35;;;15.50;99.90;;;15.91;74.09;100332.31;4926672;29;20048;-81
2023/09/16 05:18:31;;;;;;;14.40;9.50;;;15.40;99.90;;;15.91;73.99;100335.00;4909544;29;20453;-81
2023/09/16 05:20:59;;;;;;;11.93;8.32;;;15.40;99.90;;;15.89;74.23;100332.53;4909375;29;20457;-81
2023/09/16 05:23:29;;;;;;;11.98;9.02;;;15.40;99.90;;;15.89;74.30;100335.22;4910610;29;20055;-81
2023/09/16 05:25:58;;;;;;;14.15;9.52;;;15.40;99.90;;;15.88;74.36;100336.31;4910403;29;20103;-81
2023/09/16 05:28:31;;;;;;;13.20;9.35;;;15.40;99.90;;;15.87;74.37;100334.69;4895007;29;20048;-81
2023/09/16 05:31:03;;;;;;;16.10;10.13;;;15.40;99.90;;;15.88;74.40;100333.59;4908996;29;20455;-81
2023/09/16 05:33:34;;;;;;;13.82;8.82;;;15.40;99.90;;;15.87;74.40;100321.22;4893750;29;20083;-81
2023/09/16 05:36:08;;;;;;;13.43;9.32;;;15.40;99.90;;;15.87;74.49;100329.31;4924831;29;20056;-82
2023/09/16 05:38:35;;;;;;;15.98;10.15;;;15.40;99.90;;;15.88;74.57;100319.34;4871847;29;20076;-84
2023/09/16 05:41:03;;;;;;;15.60;9.77;;;15.40;99.90;;;15.88;74.46;100322.84;4887609;29;20498;-85
2023/09/16 05:43:30;;;;;;;16.23;9.60;;;15.40;99.90;;;15.91;74.65;100324.25;4903168;29;20052;-85
2023/09/16 05:45:58;;;;;;;15.02;10.60;;;15.50;99.90;;;15.89;74.70;100323.66;4887918;29;20043;-86
2023/09/16 05:48:28;;;;;;;17.42;10.75;;;15.50;99.90;;;15.90;74.78;100326.09;4903031;29;20091;-85
2023/09/16 05:51:00;;;;;;;13.50;9.63;;;15.40;99.90;;;15.93;75.20;100325.59;4918779;29;20040;-86
2023/09/16 05:53:31;;;;;;;16.52;9.68;;;15.50;99.90;;;15.94;75.08;100332.59;4903052;29;20505;-85
2023/09/16 05:56:04;;;;;;;14.57;10.32;;;15.50;99.90;;;15.97;75.38;100325.94;4888119;29;20055;-85
2023/09/16 05:58:34;;;;;;;15.98;11.02;;;15.60;99.90;;;15.98;75.45;100332.94;4886653;29;20048;-85
2023/09/16 06:01:02;;;;;;;15.90;9.93;;;16.10;99.90;;;16.01;75.50;100337.81;4887613;29;20545;-85
2023/09/16 06:03:34;;;;;;;16.80;10.95;;;16.20;99.90;;;16.06;75.75;100335.19;4888000;29;20140;-85
2023/09/16 06:06:01;;;;;;;17.50;11.48;;;15.90;99.90;;;16.08;75.85;100329.53;4902624;29;20130;-85
2023/09/16 06:08:29;;;;;;;17.38;10.00;;;16.00;99.90;;;16.13;75.85;100329.59;4902804;29;20040;-85
2023/09/16 06:10:57;;;;;;;16.58;10.98;;;16.00;99.90;;;16.15;76.03;100331.00;4902308;29;20080;-85
2023/09/16 06:13:27;;;;;;;14.25;10.82;;;16.00;99.90;;;16.18;76.39;100332.34;4902090;29;20044;-84
2023/09/16 06:15:55;;;;;;;16.27;10.95;;;15.90;99.90;;;16.21;76.44;100334.56;4886191;29;20047;-84
2023/09/16 06:18:26;;;;;;;14.90;10.55;;;15.90;99.90;;;16.23;76.52;100335.91;4902280;29;20048;-84
2023/09/16 06:20:55;;;;;;;14.25;9.95;;;15.90;99.90;;;16.27;76.63;100338.91;4887012;29;20055;-88
2023/09/16 06:23:25;;;;;;;14.35;10.18;;;16.00;99.90;;;16.32;76.82;100340.84;4902656;29;20068;-85
2023/09/16 06:25:53;;;;;;;16.58;10.70;;;16.00;99.90;;;16.37;77.21;100333.66;4888119;29;20402;-85
2023/09/16 06:28:22;;;;;;;16.00;11.38;;;16.10;99.90;;;16.43;77.45;100346.09;4918008;29;20055;-85
2023/09/16 06:30:54;;;;;;;15.77;9.77;;;16.20;99.90;;;16.50;77.34;100342.41;4886754;29;20051;-85
2023/09/16 06:33:23;;;;;;;22.33;15.55;;;16.20;99.90;;;16.55;77.35;100351.34;4902989;29;20131;-85
2023/09/16 06:35:56;;;;;;;21.40;14.80;;;16.30;99.90;;;16.61;77.02;100344.94;4886670;29;20449;-85
2023/09/16 06:38:24;;;;;;;19.77;13.73;;;16.40;99.90;;;16.69;77.00;100341.00;4917610;29;20048;-85
2023/09/16 06:40:52;;;;;;;19.50;14.20;;;16.40;99.90;;;16.74;76.87;100343.75;4901963;29;20521;-85
2023/09/16 06:43:19;;;;;;;17.83;12.75;;;16.50;99.90;;;16.79;77.17;100345.66;4917648;29;20048;-86
2023/09/16 06:45:49;;;;;;;19.65;13.10;;;16.60;99.90;;;16.84;77.12;100343.84;4902128;29;20088;-86
2023/09/16 06:48:17;;;;;;;16.83;12.82;;;16.70;99.90;;;16.92;76.89;100346.06;4918801;29;20044;-88
2023/09/16 06:50:45;;;;;;;20.70;12.50;;;16.70;99.90;;;16.95;77.34;100345.56;4918771;29;20080;-89
2023/09/16 06:53:25;;;;;;;18.58;11.63;;;16.80;99.90;;;16.99;77.19;100341.28;4870652;29;20481;-86
2023/09/16 06:55:54;;;;;;;17.17;11.90;;;16.80;99.90;;;17.05;77.26;100347.53;4918385;29;20048;-88
2023/09/16 06:58:21;;;;;;;19.05;11.77;;;16.90;99.90;;;17.09;77.23;100345.13;4902595;29;20083;-88
2023/09/16 07:00:49;;;;;;;18.85;10.63;;;17.00;99.90;;;17.15;76.68;100350.31;4918662;29;20044;-88
2023/09/16 07:03:17;;;;;;;16.40;10.70;;;17.00;99.90;;;17.18;75.94;100347.09;4918205;29;20084;-88
2023/09/16 07:05:50;;;;;;;17.13;10.38;;;17.10;99.90;;;17.23;76.65;100343.63;4901537;29;20051;-85
2023/09/16 07:08:19;;;;;;;15.77;9.10;;;17.20;99.90;;;17.29;76.78;100347.19;4918472;29;20104;-88
2023/09/16 07:10:47;;;;;;;15.32;9.73;;;17.20;99.90;;;17.32;76.56;100350.16;4917422;29;20123;-88
2023/09/16 07:13:15;;;;;;;14.43;8.90;;;17.30;99.90;;;17.38;76.99;100345.63;4901675;29;20048;-90
2023/09/16 07:15:42;;;;;;;14.13;8.88;;;17.40;99.90;;;17.44;77.03;100353.47;4901445;29;20051;-89
2023/09/16 07:18:14;;;;;;;12.35;8.13;;;17.40;99.90;;;17.47;75.78;100354.81;4901832;29;20523;-91
2023/09/16 07:20:42;;;;;;;13.38;8.15;;;17.50;99.90;;;17.53;75.98;100353.00;4901461;29;20048;-89
2023/09/16 07:23:10;;;;;;;13.60;7.93;;;17.50;99.90;;;17.58;76.25;100353.84;4901361;29;20056;-88
2023/09/16 07:25:38;;;;;;;13.18;8.55;;;17.60;99.90;;;17.62;75.62;100354.94;4901451;29;20114;-86
2023/09/16 07:28:07;;;;;;;17.05;9.02;;;17.70;99.90;;;17.68;74.80;100351.22;4917762;29;20052;-86
2023/09/16 07:30:36;;;;;;;14.02;8.10;;;17.70;99.90;;;17.72;75.03;100354.19;4885725;29;20052;-86
2023/09/16 07:33:06;;;;;;;13.80;7.40;;;17.80;99.90;;;17.78;75.06;100355.06;4901014;29;20050;-86
2023/09/16 07:35:34;;;;;;;12.80;7.50;;;17.80;99.90;;;17.85;75.04;100359.13;4901892;29;20048;-85
2023/09/16 07:38:01;;;;;;;12.95;7.80;;;17.90;99.90;;;17.89;74.05;100351.34;4917762;29;20087;-85
2023/09/16 07:40:32;;;;;;;13.98;7.70;;;18.00;99.90;;;17.95;73.66;100350.28;4901088;29;20047;-87
2023/09/16 07:43:01;;;;;;;10.43;7.03;;;18.00;99.90;;;18.04;73.31;100353.28;4900561;29;20111;-86
2023/09/16 07:45:28;;;;;;;14.10;7.30;;;18.10;99.90;;;18.12;74.34;100353.59;4900985;29;20139;-83
2023/09/16 07:47:58;;;;;;;11.35;7.18;;;18.20;99.90;;;18.21;74.05;100352.03;4918150;29;20516;-87
2023/09/16 07:50:26;;;;;;;14.07;7.43;;;18.30;99.90;;;18.32;74.29;100350.16;4918502;29;20524;-85
2023/09/16 07:52:54;;;;;;;10.80;6.65;;;18.50;99.90;;;18.38;73.41;100357.19;4869855;29;20048;-82
2023/09/16 07:55:22;;;;;;;14.25;6.40;;;18.60;99.90;;;18.50;73.48;100356.97;4900989;29;20079;-83
2023/09/16 07:57:49;;;;;;;13.25;6.65;;;18.70;99.90;;;18.51;71.57;100361.28;4900692;29;20072;-83
2023/09/16 08:00:19;;;;;;;12.48;6.78;;;18.70;99.90;;;18.55;72.47;100358.88;4917381;29;20502;-83
2023/09/16 08:02:46;;;;;;;9.18;5.90;;;18.70;99.90;;;18.62;72.79;100354.03;4885328;29;20103;-83
2023/09/16 08:05:26;;;;;;;11.23;6.18;;;18.80;99.90;;;18.71;72.53;100358.66;4918450;29;20104;-83
2023/09/16 08:07:53;;;;;;;9.88;6.10;;;18.90;99.90;;;18.77;71.35;100367.59;4913731;29;20052;-83
2023/09/16 08:10:21;;;;;;;11.15;5.90;;;18.90;99.90;;;18.84;71.06;100367.31;4886075;29;20138;-85
2023/09/16 08:12:52;;;;;;;9.30;5.65;;;19.00;99.90;;;18.93;71.20;100369.22;4903621;29;20075;-85
2023/09/16 08:15:21;;;;;;;11.43;6.05;;;19.10;99.90;;;18.95;69.55;100372.47;4915595;29;20428;-86
2023/09/16 08:17:51;;;;;;;9.25;5.53;;;19.10;99.90;;;18.95;68.94;100364.38;4920246;29;20071;-85
2023/09/16 08:20:20;;;;;;;9.57;5.77;;;19.10;99.90;;;19.04;70.80;100368.16;4919806;29;20417;-86
2023/09/16 08:22:48;;;;;;;10.68;5.95;;;19.20;99.90;;;19.12;69.65;100364.09;4900193;29;20323;-86
2023/09/16 08:25:16;;;;;;;9.27;5.57;;;19.30;99.90;;;19.14;70.15;100363.84;4915830;29;20088;-86
2023/09/16 08:27:43;;;;;;;8.32;5.55;;;19.30;99.90;;;19.19;70.01;100367.34;4900335;29;20048;-86
2023/09/16 08:30:12;;;;;;;7.45;4.90;;;19.40;99.90;;;19.22;68.58;100363.28;4853452;29;20135;-86
2023/09/16 08:32:41;;;;;;;10.05;4.93;;;19.40;99.90;;;19.24;70.14;100358.44;4884882;29;20560;-86
2023/09/16 08:35:09;;;;;;;8.27;4.95;;;19.40;99.90;;;19.32;69.66;100365.97;4916379;29;20052;-85
2023/09/16 08:37:37;;;;;;;9.45;5.72;;;19.50;99.90;;;19.40;69.19;100368.13;4917417;29;20133;-85
2023/09/16 08:40:05;;;;;;;8.43;5.15;;;19.60;99.90;;;19.38;68.51;100370.31;4917217;29;20095;-85
2023/09/16 08:42:38;;;;;;;7.97;5.60;;;19.60;99.90;;;19.41;69.06;100367.06;4900383;29;20408;-85
2023/09/16 08:45:10;;;;;;;7.60;5.28;;;19.60;99.90;;;19.49;68.00;100380.03;4900256;29;20107;-85
2023/09/16 08:47:49;;;;;;;10.77;6.05;;;19.70;99.90;;;19.54;70.28;100373.81;4917046;29;20509;-85
2023/09/16 08:50:22;;;;;;;10.63;5.07;;;19.80;99.90;;;19.66;69.75;100376.25;4916141;29;20048;-85
2023/09/16 08:52:54;;;;;;;10.68;5.68;;;19.90;99.90;;;19.61;68.40;100371.66;4900271;29;20501;-86
2023/09/16 08:55:22;;;;;;;8.43;5.25;;;19.90;99.90;;;19.66;68.06;100365.41;4900629;29;20127;-86
2023/09/16 08:57:55;;;;;;;8.50;5.43;;;19.90;99.90;;;19.76;69.20;100365.41;4884553;29;20056;-86
2023/09/16 09:00:24;;;;;;;8.43;5.30;;;20.00;99.90;;;19.80;69.22;100364.56;4900067;29;20072;-85
2023/09/16 09:02:54;;;;;;;8.68;5.50;;;20.00;99.90;;;19.85;69.05;100371.06;4900701;29;20044;-85
2023/09/16 09:05:24;;;;;;;11.48;5.50;;;20.10;99.90;;;19.83;67.79;100376.75;4916997;29;20470;-86
2023/09/16 09:07:51;;;;;;;8.00;4.85;;;20.10;99.90;;;19.93;69.11;100363.19;4917758;29;20040;-86
2023/09/16 09:10:20;;;;;;;9.82;5.78;;;20.20;99.90;;;20.09;68.17;100365.84;4901632;29;20036;-86
2023/09/16 09:12:48;;;;;;;7.68;5.30;;;20.30;99.90;;;20.09;68.27;100368.53;4917971;29;20084;-86
2023/09/16 09:15:16;;;;;;;10.55;5.32;;;20.40;99.90;;;20.20;70.20;100359.28;4900295;29;20048;-86
2023/09/16 09:17:49;;;;;;;7.55;4.97;;;20.50;99.90;;;20.27;67.11;100362.50;4916928;29;20581;-86
2023/09/16 09:20:21;;;;;;;8.35;5.32;;;20.60;99.90;;;20.21;67.30;100366.34;4917182;29;20509;-85
2023/09/16 09:22:51;;;;;;;9.93;5.25;;;20.50;99.90;;;20.24;66.94;100360.34;4917641;29;20147;-85
2023/09/16 09:25:22;;;;;;;8.73;5.40;;;20.50;99.90;;;20.27;67.79;100359.81;4917468;29;20036;-85
2023/09/16 09:27:52;;;;;;;8.13;5.63;;;20.60;99.90;;;20.27;66.62;100362.50;4917128;29;20139;-85
2023/09/16 09:30:26;;;;;;;9.60;5.70;;;20.60;99.90;;;20.31;65.54;100361.69;4916992;29;20058;-86
2023/09/16 09:32:56;;;;;;;11.23;5.40;;;20.60;99.90;;;20.32;68.03;100367.91;4901523;29;20513;-85
2023/09/16 09:35:27;;;;;;;9.40;5.22;;;20.60;99.90;;;20.41;65.97;100362.72;4920644;29;20425;-85
2023/09/16 09:37:54;;;;;;;7.22;5.45;;;20.70;99.90;;;20.45;66.59;100358.38;4920328;29;20051;-85
2023/09/16 09:40:23;;;;;;;8.15;5.43;;;20.80;99.90;;;20.50;66.76;100367.31;4920517;29;20409;-85
2023/09/16 09:42:55;;;;;;;9.32;5.35;;;20.80;99.90;;;20.51;65.81;100360.78;4920268;29;20051;-85
2023/09/16 09:45:25;;;;;;;9.85;5.68;;;20.80;99.90;;;20.54;67.13;100370.25;4903256;29;20130;-85
2023/09/16 09:47:54;;;;;;;11.00;5.60;;;20.80;99.90;;;20.52;65.20;100358.88;4920108;29;20059;-85
2023/09/16 09:50:24;;;;;;;9.00;5.68;;;20.80;99.90;;;20.54;66.47;100368.34;4920534;29;20462;-85
2023/09/16 09:52:56;;;;;;;8.63;5.93;;;20.80;99.90;;;20.57;65.82;100369.69;4918855;29;20573;-85
2023/09/16 09:55:29;;;;;;;8.68;5.70;;;20.80;99.90;;;20.60;64.97;100357.50;4903074;29;20054;-85
2023/09/16 09:58:02;;;;;;;9.02;5.78;;;20.90;99.90;;;20.66;66.14;100372.63;4903150;29;20055;-85
2023/09/16 10:00:29;;;;;;;;;;;20.90;99.90;;;20.66;64.75;100361.78;4920492;29;20044;-85
2023/09/16 10:03:00;;;;;;;8.50;6.38;;;21.00;99.90;;;20.62;64.94;100366.16;4920446;29;19927;-85
2023/09/16 10:05:35;;;;;;;10.55;5.95;;;20.90;99.90;;;20.62;65.17;100371.56;4920417;29;20118;-85
2023/09/16 10:08:03;;;;;;;9.00;5.43;;;20.90;99.90;;;20.64;64.73;100372.09;4918642;29;20513;-85
2023/09/16 10:10:33;;;;;;;12.60;6.47;;;20.90;99.90;;;20.71;66.15;100370.69;4902741;29;20048;-85
2023/09/16 10:13:01;;;;;;;11.68;5.78;;;21.00;99.90;;;20.74;65.96;100370.16;4918421;29;20052;-86
2023/09/16 10:15:32;;;;;;;8.80;5.45;;;21.00;99.90;;;20.79;66.44;100364.69;4919920;29;20497;-85
2023/09/16 10:18:01;;;;;;;8.23;5.70;;;21.10;99.90;;;20.89;67.07;100365.72;4887835;29;20044;-85
2023/09/16 10:20:32;;;;;;;10.75;6.32;;;21.20;99.90;;;20.93;65.40;100372.16;4918115;29;20044;-85